Rollinsford, New Hampshire
Current Conditions -  °F | °C
As of 11:51 AM on Sunday 21 Dec 2014 (Local Time) from KDAW Reporting Station
Overcast Overcast  
Wind Chill: 23°   Ceiling: 7500
Heat Index: 31°   Visibility: 10mi
Dew Point: 22°   Wind: 8mph
Humidity: 69%   Direction: 350°N
Pressure: 30.31"   Gusts: NA
Location:  43.24°N, 70.82°W
Report Text: KDAW 211651Z AUTO 35007KT 10SM FEW034 FEW041 OVC075 M01/M06 A3031 RMK AO2 SLP264 T10061056
Loading
Personal Weather Stations






























Interactive Weather Map New forecast layout! Learn more

10-Day Weather Forecast

Advertisements
Track Severe Weather on mobile